Nearby METAR Reports

EGNX - East Midlands, United Kingdom
Distance: S 18mi, 28km
Updated: 18/11/2019 11:50
Few Clouds
Few Clouds
 Wind from NNW
Wind: NNW 9 mph , 15 km/h
Temperature: 7°C
Wind Chill: 4°C
Dew Point: 3°C
Humidity: 76%
Barometer: 1016 hPa
Clouds: Few Clouds
Visibility: 6 miles , 10 km
Cloud details: Few Clouds 579 m
2019/11/18 11:50 EGNX 181150Z 34008KT 9999 FEW019 07/03 Q1016
EGCN - Doncaster Sheffi, United Kingdom
Distance: NNE 31mi, 50km
Updated: 18/11/2019 11:50
Few Clouds
Few Clouds
 Wind from NNW
Wind: NNW 13 mph , 20 km/h
Temperature: 7°C
Wind Chill: 4°C
Dew Point: 3°C
Humidity: 76%
Barometer: 1018 hPa
Clouds: Few Clouds
Visibility: 6 miles , 10 km
Cloud details: Few Clouds 914 m
2019/11/18 11:50 EGCN 181150Z 33011KT 9999 FEW030 07/03 Q1018
EGYE - Barkston Heath R, United Kingdom
Distance: ESE 31mi, 50km
Updated: 18/11/2019 10:50
NOT Current
Few Clouds
Few Clouds
 Wind from NNW
Wind: NNW 12 mph , 19 km/h
Barometer: 1016 hPa
Clouds: Few Clouds
Visibility: 6 miles , 10 km
Cloud details: Few Clouds 244 m
2019/11/18 10:50 EGYE 181050Z 33010KT 9999 FEW008 ///// Q1016 RMK BLU
 
EGXW - Waddington Raf, United Kingdom
Distance: ENE 33mi, 53km
Updated: 18/11/2019 11:50
Few Clouds
Few Clouds
 Wind from NNW
Wind: NNW 14 mph , 22 km/h
Temperature: 6°C
Wind Chill: 2°C
Dew Point: 3°C
Humidity: 81%
Barometer: 1016 hPa
Clouds: Few Clouds
Visibility: 6 miles , 10 km
Cloud details: Few Clouds 366 m
2019/11/18 11:50 EGXW 181150Z 33012KT 9999 FEW012 06/03 Q1016 NOSIG RMK BLU BLU
EGYD - Cranwell Raf, United Kingdom
Distance: E 33mi, 53km
Updated: 18/11/2019 11:50
Few Clouds
Few Clouds
 Wind from NNW
Wind: NNW 15 mph , 24 km/h
Temperature: 6°C
Wind Chill: 2°C
Dew Point: 3°C
Humidity: 81%
Barometer: 1016 hPa
Clouds: Few Clouds
Visibility: 6 miles , 10 km
Cloud details: Few Clouds 305 m
2019/11/18 11:50 EGYD 181150Z 33013KT 9999 FEW010 06/03 Q1016 NOSIG RMK BLU BLU
EGXP - Scampton Raf, United Kingdom
Distance: ENE 35mi, 56km
Updated: 18/11/2019 11:50
Clear
Clear
 Wind from NNW
Wind: NNW 15 mph , 24 km/h
Temperature: 6°C
Wind Chill: 2°C
Dew Point: 4°C
Humidity: 87%
Barometer: 1015 hPa
Summary: Clear
Visibility: greater than 7 miles , 10 km
2019/11/18 11:50 EGXP 181150Z 33013KT CAVOK 06/04 Q1015 RMK BLU
 
EGCC - Manchester Intl, United Kingdom
Distance: WNW 45mi, 72km
Updated: 18/11/2019 11:50
Few Clouds
Few Clouds
 Wind from W
Wind: W 5 mph , 7 km/h
Temperature: 5°C
Wind Chill: 3°C
Dew Point: 3°C
Humidity: 87%
Barometer: 1018 hPa
Clouds: Few Clouds
Visibility: 6 miles , 10 km
Cloud details: Few Clouds 1189 m
2019/11/18 11:50 EGCC 181150Z AUTO 26004KT 9999 FEW039 05/03 Q1018
EGBB - Birmingham Airpo, United Kingdom
Distance: SSW 46mi, 74km
Updated: 18/11/2019 11:50
Few Clouds
Few Clouds
 Wind from NNW
Wind: NNW 10 mph , 17 km/h
Temperature: 7°C
Wind Chill: 4°C
Dew Point: 3°C
Humidity: 76%
Barometer: 1017 hPa
Clouds: Few Clouds
Visibility: 6 miles , 10 km
Cloud details: Few Clouds 579 m
2019/11/18 11:50 EGBB 181150Z 34009KT 9999 FEW019 07/03 Q1017
EGXC - Coningsby Raf, United Kingdom
Distance: E 47mi, 75km
Updated: 18/11/2019 11:50
Few Clouds
Few Clouds
 Wind from NNW
Wind: NNW 15 mph , 24 km/h
Temperature: 8°C
Wind Chill: 4°C
Dew Point: 4°C
Humidity: 76%
Barometer: 1015 hPa
Clouds: Few Clouds
Visibility: 6 miles , 10 km
Cloud details: Few Clouds 549 m
2019/11/18 11:50 EGXC 181150Z 34013KT 9999 FEW018 08/04 Q1015 NOSIG RMK BLU BLU
 
EGXT - Wittering Raf, United Kingdom
Distance: SE 47mi, 75km
Updated: 18/11/2019 11:50
Few Clouds
Few Clouds
 Wind from NNW
Wind: NNW 10 mph , 17 km/h
Temperature: 7°C
Wind Chill: 4°C
Dew Point: 4°C
Humidity: 81%
Barometer: 1015 hPa
Clouds: Few Clouds
Visibility: 6 miles , 10 km
Cloud details: Few Clouds 549 m
2019/11/18 11:50 EGXT 181150Z 34009KT 9999 FEW018 07/04 Q1015 BLU
EGNJ - Humberside, United Kingdom
Distance: NE 52mi, 83km
Updated: 18/11/2019 11:50
Few Clouds
Few Clouds
 Wind from NW
Wind: NW 14 mph , 22 km/h
Temperature: 8°C
Wind Chill: 4°C
Dew Point: 5°C
Humidity: 82%
Barometer: 1016 hPa
Clouds: Few Clouds
Visibility: 6 miles , 10 km
Cloud details: Few Clouds 457 m
2019/11/18 11:50 EGNJ 181150Z 31012KT 9999 FEW015 08/05 Q1016
EGWC - Cosford Raf, United Kingdom
Distance: SW 52mi, 83km
Updated: 18/11/2019 11:50
Few Clouds
Few Clouds
 Wind from NW
Wind: NW 8 mph , 13 km/h
Temperature: 6°C
Wind Chill: 3°C
Dew Point: 3°C
Humidity: 81%
Barometer: 1018 hPa
Clouds: Few Clouds
Visibility: 6 miles , 10 km
Cloud details: Few Clouds 366 m
2019/11/18 11:50 EGWC 181150Z 32007KT 9999 FEW012 06/03 Q1018 RMK BLU
 
EGNM - Leeds And Bradfo, United Kingdom
Distance: NNW 57mi, 91km
Updated: 18/11/2019 11:50
Few Clouds
Few Clouds
 Wind from N
Wind: N 9 mph , 15 km/h
Temperature: 6°C
Wind Chill: 3°C
Dew Point: 0°C
Humidity: 66%
Barometer: 1017 hPa
Clouds: Few Clouds
Visibility: 6 miles , 10 km
Cloud details: Few Clouds 610 m
2019/11/18 11:50 EGNM 181150Z 35008KT 320V020 9999 FEW020 06/00 Q1017
EGOS - Shawbury Raf, United Kingdom
Distance: WSW 60mi, 97km
Updated: 18/11/2019 11:50
Mostly cloudy
Mostly cloudy
 Wind from NNW
Wind: NNW 8 mph , 13 km/h
Temperature: 7°C
Wind Chill: 5°C
Dew Point: 4°C
Humidity: 81%
Barometer: 1018 hPa
Clouds: Mostly cloudy
Visibility: 6 miles , 10 km
Cloud details: Few Clouds 549 m
Mostly cloudy 975 m
2019/11/18 11:50 EGOS 181150Z 33007KT 9999 FEW018 BKN032 07/04 Q1018 NOSIG RMK BLU BLU
EGYH - Holbeach (aut), United Kingdom
Distance: ESE 62mi, 99km
Updated: 18/11/2019 11:50
Few Clouds
Few Clouds
 Wind from NNW
Wind: NNW 20 mph , 31 km/h
Temperature: 8°C
Wind Chill: 3°C
Dew Point: 5°C
Humidity: 82%
Barometer: 1015 hPa
Clouds: Few Clouds
Visibility: 6 miles , 10 km
Cloud details: Few Clouds 1219 m
2019/11/18 11:50 EGYH 181150Z 34017KT 9999 FEW040 08/05 Q1015 RMK BLU
 
EGXV - Leconfield (aut), United Kingdom
Distance: NNE 65mi, 105km
Updated: 18/11/2019 11:50
Clear
Clear
 Wind from NNW
Wind: NNW 13 mph , 20 km/h
Temperature: 7°C
Wind Chill: 4°C
Dew Point: 4°C
Humidity: 81%
Barometer: 1015 hPa
Clouds: Clear
Visibility: 6 miles , 10 km
2019/11/18 11:50 EGXV 181150Z AUTO 33011KT 9999 NCD 07/04 Q1015
EGXS - Donna Nook Raf, United Kingdom
Distance: ENE 66mi, 106km
Updated: 17/11/2019 13:50
NOT Current
Mostly cloudy
Mostly cloudy
 Wind from NNE
Wind: NNE 22 mph , 35 km/h
Temperature: 9°C
Wind Chill: 5°C
Dew Point: 7°C
Humidity: 87%
Barometer: 1012 hPa
Clouds: Mostly cloudy
Visibility: 6 miles , 10 km
Cloud details: Mostly cloudy 549 m
2019/11/17 13:50 EGXS 171350Z AUTO 02019KT 9999 // BKN018/// 09/07 Q1012
EGGP - Liverpool Airpor, United Kingdom
Distance: WNW 67mi, 107km
Updated: 18/11/2019 11:50
Partly cloudy
Partly cloudy
 Wind from W
Wind: W 6 mph , 9 km/h
Temperature: 7°C
Wind Chill: 6°C
Dew Point: 5°C
Humidity: 87%
Barometer: 1018 hPa
Clouds: Partly cloudy
Visibility: 6 miles , 10 km
Cloud details: Partly cloudy 1006 m
2019/11/18 11:50 EGGP 181150Z 28005KT 9999 SCT033 07/05 Q1018
 
EGXU - Linton-On-Ouse R, United Kingdom
Distance: N 68mi, 109km
Updated: 18/11/2019 11:50
Clear
Clear
 Wind from NNW
Wind: NNW 12 mph , 19 km/h
Temperature: 6°C
Wind Chill: 3°C
Dew Point: 2°C
Humidity: 76%
Barometer: 1017 hPa
Clouds: Clear
Visibility: 6 miles , 10 km
2019/11/18 11:50 EGXU 181150Z AUTO 33010KT 9999 // NCD 06/02 Q1017
EGNR - Hawarden (aut), United Kingdom
Distance: W 70mi, 112km
Updated: 18/11/2019 11:50
Few Clouds
Few Clouds
 Wind from varies
Wind: varies 3 mph , 6 km/h
Temperature: 7°C
Dew Point: 3°C
Humidity: 76%
Barometer: 1019 hPa
Clouds: Few Clouds
Visibility: 6 miles , 10 km
Cloud details: Few Clouds 1219 m
2019/11/18 11:50 EGNR 181150Z VRB03KT 9999 FEW040 07/03 Q1019